Oak Park, IL (60303)

6:20 AM CST on November 27, 2014 (GMT -0600)
Oak Park | Change Station
CLOSE
Current Station
Personal Weather Station
Location: Oak Park, IL
Elevation: 633 ft
Nearby Weather Stations

Elev 633 ft 41.91 °N, 87.80 °W | Updated 3 seconds ago

Overcast
Overcast
24.8 °F
Feels Like 25 °F
N
0.0
Wind Variable Wind from SE
Gusts 0.0 mph

Today
High -- | Low -- °F
--% Chance of Precip.
Yesterday
High -- | Low -- °F
Precip. -- in
6:54 AM 4:22 PM
Waxing Crescent, 29% visible
Pressure 30.31 in
Visibility 8.0 miles
Clouds Overcast 6000 ft
Windchill 25 °F
Dew Point 18 °F
Humidity 75%
Rainfall 0.00 in
Snow Depth Not available.
UV 0 out of 12
Pollen .10 out of 12
Air Quality Not available.
Flu Activity Not available.
METAR KMDW 271153Z 29006KT 8SM OVC060 M03/M07 A3026 RMK AO2 SNB28E43 SLP262 P0000 60000 T10331072 11011 21033 53014

More Conditions Fewer Conditions

Pressure 30.31 in
Visibility 8.0 miles
Clouds Overcast 6000 ft
Windchill 25 °F
Dew Point 18 °F
Humidity 75%
Rainfall 0.00 in
Snow Depth Not available.
UV 0 out of 12
Pollen .10 out of 12
Air Quality Not available.
Flu Activity Not available.
METAR KMDW 271153Z 29006KT 8SM OVC060 M03/M07 A3026 RMK AO2 SNB28E43 SLP262 P0000 60000 T10331072 11011 21033 53014

More Conditions Fewer Conditions

10-Day Weather Forecast

Almanac

Astronomy

Nov. 27, 2014 Rise Set
Actual Time
Civil Twilight
Nautical Twilight
Astronomical Twilight
Moon
Length of Visible Light
Length of Day
Tomorrow will be .
, % of the Moon is Illuminated

Today's Extremes

State Highs State Lows

Community

WunderPhotos

Upload Photos

1,773,977 photos uploaded!

WunderBlogs® & News

Nearby

Air Quality

  Air Quality AQ Index Pollutant
Not available.

Snow Depth

Station Depth Elevation

Earthquake Activity

City Distance Mag. Time & Date
Minimum magnitude displayed is 2.5.

Coastal Water Temperatures

Place Temperature

Nearby Weather Stations